createdAt,value
2018-09-18T00:01:13.965Z,94.40
2018-09-18T00:03:42.229Z,94.80
2018-09-18T00:06:10.492Z,95.30
2018-09-18T00:08:38.697Z,95.00
2018-09-18T00:11:06.922Z,94.90
2018-09-18T00:13:35.304Z,95.00
2018-09-18T00:16:03.661Z,95.10
2018-09-18T00:18:32.177Z,95.70
2018-09-18T00:21:00.489Z,95.60
2018-09-18T00:23:28.853Z,95.10
2018-09-18T00:25:57.101Z,95.10
2018-09-18T00:28:25.649Z,95.30
2018-09-18T00:30:53.896Z,95.40
2018-09-18T00:33:22.085Z,95.70
2018-09-18T00:35:50.349Z,95.60
2018-09-18T00:38:18.628Z,95.50
2018-09-18T00:40:46.886Z,95.10
2018-09-18T00:43:15.171Z,96.00
2018-09-18T00:45:43.380Z,95.90
2018-09-18T00:48:11.609Z,96.10
2018-09-18T00:50:39.985Z,96.60
2018-09-18T00:53:08.200Z,96.60
2018-09-18T00:55:36.431Z,96.40
2018-09-18T00:58:04.636Z,96.90
2018-09-18T01:00:32.848Z,96.80
2018-09-18T01:03:01.100Z,96.40
2018-09-18T01:05:29.330Z,96.40
2018-09-18T01:07:57.536Z,96.70
2018-09-18T01:10:25.820Z,96.70
2018-09-18T01:12:54.060Z,97.00
2018-09-18T01:15:22.308Z,97.00
2018-09-18T01:17:50.524Z,96.80
2018-09-18T01:20:18.760Z,96.80
2018-09-18T01:22:46.976Z,97.10
2018-09-18T01:25:15.226Z,96.80
2018-09-18T01:27:44.072Z,96.80
2018-09-18T01:30:12.356Z,96.90
2018-09-18T01:32:40.828Z,96.80
2018-09-18T01:35:09.092Z,96.80
2018-09-18T01:37:37.337Z,97.20
2018-09-18T01:40:05.988Z,97.20
2018-09-18T01:42:34.225Z,97.30
2018-09-18T01:45:02.497Z,97.60
2018-09-18T01:47:30.761Z,97.30
2018-09-18T01:49:58.992Z,97.40
2018-09-18T01:52:27.208Z,97.60
2018-09-18T01:54:55.424Z,97.10
2018-09-18T01:57:23.728Z,96.80
2018-09-18T01:59:52.402Z,96.90
2018-09-18T02:02:20.749Z,97.50
2018-09-18T02:04:49.004Z,97.40
2018-09-18T02:07:17.284Z,97.50
2018-09-18T02:09:45.706Z,97.70
2018-09-18T02:12:14.134Z,97.90
2018-09-18T02:14:42.353Z,97.80
2018-09-18T02:17:10.585Z,98.50
2018-09-18T02:19:38.813Z,98.40
2018-09-18T02:22:07.189Z,98.20
2018-09-18T02:24:35.549Z,98.30
2018-09-18T02:27:03.897Z,97.90
2018-09-18T02:29:32.118Z,97.70
2018-09-18T02:32:00.349Z,97.70
2018-09-18T02:34:28.636Z,97.70
2018-09-18T02:36:56.852Z,97.50
2018-09-18T02:39:25.236Z,97.70
2018-09-18T02:41:53.464Z,98.00
2018-09-18T02:44:21.748Z,98.00
2018-09-18T02:46:49.948Z,98.00
2018-09-18T02:49:18.298Z,98.10
2018-09-18T02:51:46.514Z,98.20
2018-09-18T02:54:15.021Z,97.60
2018-09-18T02:56:43.248Z,97.60
2018-09-18T02:59:11.430Z,97.40
2018-09-18T03:01:39.756Z,97.80
2018-09-18T03:04:07.988Z,98.20
2018-09-18T03:06:36.211Z,98.00
2018-09-18T03:09:06.147Z,97.90
2018-09-18T03:11:34.366Z,98.10
2018-09-18T03:14:02.603Z,98.00
2018-09-18T03:16:30.833Z,97.30
2018-09-18T03:18:59.080Z,97.80
2018-09-18T03:21:27.365Z,98.10
2018-09-18T03:23:55.639Z,98.10
2018-09-18T03:26:23.940Z,97.90
2018-09-18T03:28:52.187Z,97.60
2018-09-18T03:31:20.429Z,97.70
2018-09-18T03:33:48.639Z,97.50
2018-09-18T03:36:16.836Z,97.70
2018-09-18T03:38:45.034Z,97.90
2018-09-18T03:41:13.344Z,97.90
2018-09-18T03:43:41.556Z,98.30
2018-09-18T03:46:09.785Z,98.30
2018-09-18T03:48:38.078Z,98.20
2018-09-18T03:51:06.328Z,98.10
2018-09-18T03:53:34.529Z,98.40
2018-09-18T03:56:02.772Z,98.20
2018-09-18T03:58:31.003Z,98.50
2018-09-18T04:00:59.281Z,98.60
2018-09-18T04:03:27.488Z,98.30
2018-09-18T04:05:55.687Z,98.10
2018-09-18T04:08:23.894Z,98.50
2018-09-18T04:10:52.132Z,98.70
2018-09-18T04:13:20.381Z,98.70
2018-09-18T04:15:48.630Z,98.80
2018-09-18T04:18:19.527Z,98.60
2018-09-18T04:20:47.739Z,98.60
2018-09-18T04:23:15.896Z,98.70
2018-09-18T04:25:44.158Z,98.20
2018-09-18T04:28:12.340Z,98.60
2018-09-18T04:30:40.542Z,98.30
2018-09-18T04:33:08.821Z,98.30
2018-09-18T04:35:36.997Z,98.50
2018-09-18T04:38:05.237Z,98.20
2018-09-18T04:40:33.580Z,97.90
2018-09-18T04:43:01.825Z,98.20
2018-09-18T04:45:30.036Z,98.10
2018-09-18T04:47:58.333Z,98.70
2018-09-18T04:50:26.601Z,99.10
2018-09-18T04:52:54.884Z,99.00
2018-09-18T04:55:23.205Z,98.80
2018-09-18T04:57:51.412Z,99.10
2018-09-18T05:00:19.673Z,99.00
2018-09-18T05:02:47.947Z,99.00
2018-09-18T05:05:16.176Z,98.80
2018-09-18T05:07:44.392Z,99.50
2018-09-18T05:10:12.737Z,99.00
2018-09-18T05:12:40.953Z,99.20
2018-09-18T05:15:09.189Z,99.50
2018-09-18T05:17:37.676Z,99.00
2018-09-18T05:20:05.936Z,99.60
2018-09-18T05:22:34.159Z,99.60
2018-09-18T05:25:02.381Z,99.50
2018-09-18T05:27:30.568Z,99.40
2018-09-18T05:29:58.786Z,98.80
2018-09-18T05:32:26.996Z,98.80
2018-09-18T05:34:55.265Z,98.90
2018-09-18T05:37:23.542Z,98.40
2018-09-18T05:39:51.805Z,98.30
2018-09-18T05:42:20.009Z,98.60
2018-09-18T05:44:48.242Z,98.10
2018-09-18T05:47:16.452Z,98.20
2018-09-18T05:49:44.654Z,98.40
2018-09-18T05:52:12.874Z,98.30
2018-09-18T05:54:41.097Z,98.40
2018-09-18T05:57:09.276Z,98.00
2018-09-18T05:59:37.489Z,98.30
2018-09-18T06:02:05.817Z,97.40
2018-09-18T06:04:33.960Z,96.50
2018-09-18T06:07:02.177Z,96.60
2018-09-18T06:09:30.422Z,95.70
2018-09-18T06:11:58.625Z,95.30
2018-09-18T06:14:26.889Z,95.00
2018-09-18T06:16:55.145Z,94.40
2018-09-18T06:19:23.414Z,94.60
2018-09-18T06:21:51.642Z,94.10
2018-09-18T06:24:19.876Z,93.90
2018-09-18T06:26:48.101Z,93.70
2018-09-18T06:29:16.340Z,93.30
2018-09-18T06:31:44.609Z,93.50
2018-09-18T06:34:12.912Z,93.10
2018-09-18T06:36:41.217Z,93.30
2018-09-18T06:39:10.554Z,92.80
2018-09-18T06:41:39.284Z,93.10
2018-09-18T06:44:07.621Z,92.30
2018-09-18T06:46:35.921Z,92.00
2018-09-18T06:49:04.202Z,91.60
2018-09-18T06:51:32.484Z,91.40
2018-09-18T06:54:00.777Z,91.20
2018-09-18T06:56:29.024Z,91.50
2018-09-18T06:58:57.228Z,91.00
2018-09-18T07:01:25.453Z,90.80
2018-09-18T07:03:53.773Z,90.40
2018-09-18T07:06:22.008Z,90.20
2018-09-18T07:08:50.227Z,90.70
2018-09-18T07:11:18.515Z,90.10
2018-09-18T07:13:46.716Z,90.10
2018-09-18T07:16:14.957Z,88.80
2018-09-18T07:18:43.168Z,89.90
2018-09-18T07:21:11.585Z,87.40
2018-09-18T07:23:40.258Z,87.10
2018-09-18T07:26:08.613Z,86.00
2018-09-18T07:28:36.837Z,85.10
2018-09-18T07:31:05.213Z,83.80
2018-09-18T07:33:33.469Z,82.90
2018-09-18T07:36:01.765Z,84.00
2018-09-18T07:38:30.028Z,82.70
2018-09-18T07:40:58.358Z,82.70
2018-09-18T07:43:26.602Z,80.60
2018-09-18T07:45:54.854Z,81.20
2018-09-18T07:48:23.145Z,79.90
2018-09-18T07:50:51.356Z,78.00
2018-09-18T07:53:19.968Z,76.10
2018-09-18T07:55:48.489Z,75.80
2018-09-18T07:58:16.756Z,75.50
2018-09-18T08:00:44.953Z,74.30
2018-09-18T08:03:13.245Z,73.70
2018-09-18T08:05:41.487Z,72.10
2018-09-18T08:08:15.313Z,69.50
2018-09-18T08:10:43.714Z,69.00
2018-09-18T08:13:12.085Z,66.80
2018-09-18T08:15:40.419Z,66.10
2018-09-18T08:18:08.613Z,63.70
2018-09-18T08:20:36.845Z,59.90
2018-09-18T08:23:05.074Z,59.80
2018-09-18T08:25:33.289Z,57.90
2018-09-18T08:28:01.499Z,55.60
2018-09-18T08:30:29.745Z,55.50
2018-09-18T08:32:58.065Z,55.20
2018-09-18T08:35:26.221Z,53.60
2018-09-18T08:37:54.498Z,52.60
2018-09-18T08:40:22.683Z,52.40
2018-09-18T08:42:51.900Z,51.40
2018-09-18T08:45:21.296Z,50.80
2018-09-18T08:47:49.504Z,50.70
2018-09-18T08:50:17.724Z,50.40
2018-09-18T08:52:46.143Z,49.30
2018-09-18T08:55:14.421Z,48.70
2018-09-18T08:57:42.638Z,48.70
2018-09-18T09:00:11.198Z,48.80
2018-09-18T09:02:39.642Z,47.40
2018-09-18T09:05:07.929Z,47.70
2018-09-18T09:07:36.238Z,47.30
2018-09-18T09:10:04.613Z,47.00
2018-09-18T09:12:32.744Z,45.90
2018-09-18T09:15:01.023Z,45.40
2018-09-18T09:17:29.332Z,45.60
2018-09-18T09:19:57.604Z,44.70
2018-09-18T09:22:25.879Z,44.30
2018-09-18T09:24:54.019Z,44.00
2018-09-18T09:27:22.255Z,43.60
2018-09-18T09:29:50.469Z,43.40
2018-09-18T09:32:18.791Z,43.00
2018-09-18T09:34:47.072Z,42.10
2018-09-18T09:37:15.917Z,41.40
2018-09-18T09:39:44.018Z,41.30
2018-09-18T09:42:12.338Z,41.00
2018-09-18T09:44:40.576Z,41.30
2018-09-18T09:47:08.854Z,41.00
2018-09-18T09:49:37.138Z,40.70
2018-09-18T09:52:06.014Z,41.10
2018-09-18T09:54:34.342Z,41.50
2018-09-18T09:57:03.065Z,40.90
2018-09-18T09:59:31.472Z,40.80
2018-09-18T10:02:05.105Z,41.10
2018-09-18T10:04:33.338Z,41.50
2018-09-18T10:07:01.631Z,41.70
2018-09-18T10:09:30.202Z,41.50
2018-09-18T10:11:58.460Z,41.60
2018-09-18T10:14:27.052Z,41.80
2018-09-18T10:16:55.288Z,42.40
2018-09-18T10:19:23.893Z,42.30
2018-09-18T10:21:52.309Z,42.80
2018-09-18T10:24:20.580Z,42.80
2018-09-18T10:26:48.970Z,42.80
2018-09-18T10:29:17.230Z,43.10
2018-09-18T10:31:46.089Z,43.40
2018-09-18T10:34:14.767Z,43.50
2018-09-18T10:36:43.594Z,43.20
2018-09-18T10:39:12.268Z,44.60
2018-09-18T10:41:40.591Z,44.20
2018-09-18T10:44:10.242Z,44.20
2018-09-18T10:46:38.482Z,44.70
2018-09-18T10:49:06.826Z,44.60
2018-09-18T10:51:35.041Z,44.70
2018-09-18T10:54:03.405Z,44.30
2018-09-18T10:56:31.637Z,44.70
2018-09-18T10:59:00.948Z,44.60
2018-09-18T11:01:29.472Z,45.40
2018-09-18T11:03:57.686Z,45.40
2018-09-18T11:06:25.999Z,45.80
2018-09-18T11:08:54.240Z,46.70
2018-09-18T11:11:22.483Z,46.60
2018-09-18T11:13:50.877Z,46.60
2018-09-18T11:16:19.165Z,47.10
2018-09-18T11:18:49.532Z,47.20
2018-09-18T11:21:17.739Z,47.10
2018-09-18T11:23:46.200Z,46.90
2018-09-18T11:26:14.425Z,47.10
2018-09-18T11:28:43.388Z,47.30
2018-09-18T11:31:11.685Z,47.10
2018-09-18T11:33:39.929Z,46.50
2018-09-18T11:36:08.517Z,46.30
2018-09-18T11:38:36.757Z,46.60
2018-09-18T11:41:05.722Z,45.90
2018-09-18T11:43:33.996Z,45.50
2018-09-18T11:46:02.477Z,45.60
2018-09-18T11:48:32.150Z,45.10
2018-09-18T11:51:00.733Z,44.70
2018-09-18T11:53:29.036Z,43.40
2018-09-18T11:55:57.509Z,43.40
2018-09-18T11:58:25.948Z,43.40
2018-09-18T12:00:54.164Z,43.50
2018-09-18T12:03:23.479Z,43.90
2018-09-18T12:05:51.690Z,42.60
2018-09-18T12:08:19.931Z,42.30
2018-09-18T12:10:48.143Z,41.60
2018-09-18T12:13:16.383Z,40.40
2018-09-18T12:15:44.651Z,39.80
2018-09-18T12:18:13.947Z,40.10
2018-09-18T12:20:42.210Z,40.20
2018-09-18T12:23:10.474Z,40.60
2018-09-18T12:25:38.869Z,40.50
2018-09-18T12:28:10.834Z,40.60
2018-09-18T12:30:39.105Z,40.00
2018-09-18T12:33:07.373Z,39.90
2018-09-18T12:35:36.307Z,39.50
2018-09-18T12:38:04.770Z,40.40
2018-09-18T12:40:33.029Z,40.10
2018-09-18T12:43:01.443Z,39.10
2018-09-18T12:45:29.733Z,39.70
2018-09-18T12:47:58.009Z,40.10
2018-09-18T12:50:26.352Z,40.00
2018-09-18T12:52:54.533Z,40.30
2018-09-18T12:55:23.937Z,40.20
2018-09-18T12:57:53.215Z,40.00
2018-09-18T13:00:21.614Z,38.50
2018-09-18T13:02:49.873Z,38.70
2018-09-18T13:05:18.168Z,37.50
2018-09-18T13:07:46.429Z,38.20
2018-09-18T13:10:14.634Z,38.50
2018-09-18T13:12:42.953Z,39.10
2018-09-18T13:15:11.161Z,38.70
2018-09-18T13:17:40.356Z,38.40
2018-09-18T13:20:08.609Z,37.40
2018-09-18T13:22:37.002Z,37.80
2018-09-18T13:25:06.767Z,37.80
2018-09-18T13:27:36.043Z,37.30
2018-09-18T13:30:04.527Z,37.30
2018-09-18T13:32:33.022Z,36.50
2018-09-18T13:35:01.279Z,36.50
2018-09-18T13:37:29.489Z,36.50
2018-09-18T13:39:57.657Z,35.80
2018-09-18T13:42:25.894Z,36.00
2018-09-18T13:44:54.145Z,35.90
2018-09-18T13:47:23.091Z,35.00
2018-09-18T13:49:51.346Z,33.40
2018-09-18T13:52:19.634Z,32.70
2018-09-18T13:54:47.880Z,31.70
2018-09-18T13:57:17.291Z,31.20
2018-09-18T13:59:45.630Z,31.00
2018-09-18T14:02:14.418Z,31.10
2018-09-18T14:04:42.669Z,31.30
2018-09-18T14:07:12.889Z,31.20
2018-09-18T14:09:46.300Z,30.90
2018-09-18T14:12:15.567Z,30.90
2018-09-18T14:14:43.881Z,30.90
2018-09-18T14:17:24.383Z,31.50
2018-09-18T14:19:54.750Z,31.90
2018-09-18T14:22:23.455Z,31.40
2018-09-18T14:24:51.648Z,31.50
2018-09-18T14:27:23.073Z,31.20
2018-09-18T14:29:51.368Z,31.10
2018-09-18T14:32:20.737Z,31.60
2018-09-18T14:34:50.415Z,31.20
2018-09-18T14:37:18.609Z,31.70
2018-09-18T14:39:46.957Z,32.10
2018-09-18T14:42:15.268Z,31.10
2018-09-18T14:44:43.593Z,31.20
2018-09-18T14:47:13.904Z,30.80
2018-09-18T14:49:42.149Z,30.70
2018-09-18T14:52:11.252Z,30.80
2018-09-18T14:54:39.841Z,31.10
2018-09-18T14:57:09.245Z,31.10
2018-09-18T14:59:37.709Z,31.20
2018-09-18T15:02:06.547Z,31.80
2018-09-18T15:04:37.118Z,32.40
2018-09-18T15:07:05.429Z,32.00
2018-09-18T15:09:34.095Z,32.30
2018-09-18T15:12:02.565Z,32.10
2018-09-18T15:14:30.864Z,32.70
2018-09-18T15:16:59.058Z,32.80
2018-09-18T15:19:27.732Z,32.80
2018-09-18T15:21:56.086Z,33.10
2018-09-18T15:24:24.286Z,33.00
2018-09-18T15:26:52.510Z,33.00
2018-09-18T15:29:20.999Z,33.20
2018-09-18T15:31:49.293Z,32.90
2018-09-18T15:34:18.369Z,33.20
2018-09-18T15:36:46.576Z,33.30
2018-09-18T15:39:14.805Z,32.80
2018-09-18T15:41:43.028Z,33.00
2018-09-18T15:44:11.224Z,32.70
2018-09-18T15:46:39.677Z,32.50
2018-09-18T15:49:07.937Z,32.80
2018-09-18T15:51:36.918Z,32.00
2018-09-18T15:54:05.399Z,32.40
2018-09-18T15:56:33.612Z,32.40
2018-09-18T15:59:01.913Z,32.90
2018-09-18T16:01:30.255Z,33.20
2018-09-18T16:03:58.664Z,33.70
2018-09-18T16:06:26.809Z,34.10
2018-09-18T16:08:55.327Z,33.80
2018-09-18T16:11:23.821Z,34.30
2018-09-18T16:13:52.045Z,34.50
2018-09-18T16:16:21.456Z,35.00
2018-09-18T16:18:49.676Z,35.60
2018-09-18T16:21:17.905Z,35.80
2018-09-18T16:23:46.125Z,36.10
2018-09-18T16:26:14.387Z,36.50
2018-09-18T16:28:42.664Z,36.90
2018-09-18T16:31:11.014Z,36.70
2018-09-18T16:33:39.344Z,37.10
2018-09-18T16:36:07.771Z,37.80
2018-09-18T16:38:36.614Z,37.40
2018-09-18T16:41:04.973Z,37.90
2018-09-18T16:43:37.771Z,37.80
2018-09-18T16:46:05.992Z,38.10
2018-09-18T16:48:34.220Z,38.10
2018-09-18T16:51:02.457Z,38.20
2018-09-18T16:53:30.724Z,38.60
2018-09-18T16:55:58.962Z,38.80
2018-09-18T16:58:27.307Z,38.90
2018-09-18T17:03:31.762Z,39.20
2018-09-18T17:06:00.047Z,39.60
2018-09-18T17:08:28.458Z,40.60
2018-09-18T17:10:56.749Z,40.00
2018-09-18T17:13:25.175Z,40.70
2018-09-18T17:15:53.326Z,40.60
2018-09-18T17:18:21.691Z,41.20
2018-09-18T17:20:49.956Z,41.00
2018-09-18T17:23:18.228Z,41.50
2018-09-18T17:25:47.494Z,42.00
2018-09-18T17:28:16.951Z,41.90
2018-09-18T17:30:45.249Z,42.40
2018-09-18T17:33:16.077Z,43.00
2018-09-18T17:35:44.400Z,42.80
2018-09-18T17:38:12.638Z,43.00
2018-09-18T17:40:40.955Z,43.30
2018-09-18T17:43:09.350Z,44.00
2018-09-18T17:45:37.687Z,44.10
2018-09-18T17:48:06.111Z,44.30
2018-09-18T17:50:34.633Z,44.30
2018-09-18T17:53:04.014Z,45.40
2018-09-18T17:55:33.427Z,45.00
2018-09-18T17:58:01.833Z,45.30
2018-09-18T18:00:30.088Z,45.00
2018-09-18T18:02:58.401Z,45.20
2018-09-18T18:05:26.748Z,45.10
2018-09-18T18:07:55.074Z,45.50
2018-09-18T18:10:42.434Z,46.50
2018-09-18T18:13:31.283Z,46.20
2018-09-18T18:16:00.369Z,46.90
2018-09-18T18:18:54.350Z,47.20
2018-09-18T18:21:53.093Z,46.70
2018-09-18T18:24:47.553Z,47.00
2018-09-18T18:27:16.705Z,47.30
2018-09-18T18:29:45.071Z,47.60
2018-09-18T18:32:13.380Z,47.60
2018-09-18T18:34:43.000Z,47.90
2018-09-18T18:37:11.340Z,47.70
2018-09-18T18:39:39.681Z,47.70
2018-09-18T18:42:08.069Z,48.20
2018-09-18T18:44:36.442Z,48.60
2018-09-18T18:47:05.056Z,49.10
2018-09-18T18:49:36.449Z,49.80
2018-09-18T18:52:05.253Z,48.90
2018-09-18T18:54:34.770Z,49.30
2018-09-18T18:57:11.048Z,49.20
2018-09-18T18:59:55.131Z,50.00
2018-09-18T19:02:39.142Z,50.10
2018-09-18T19:05:28.521Z,50.00
2018-09-18T19:08:11.504Z,50.60
2018-09-18T19:10:40.442Z,51.00
2018-09-18T19:13:09.046Z,50.90
2018-09-18T19:15:37.322Z,51.90
2018-09-18T19:18:05.649Z,52.60
2018-09-18T19:20:40.638Z,52.60
2018-09-18T19:23:08.972Z,53.40
2018-09-18T19:25:37.332Z,52.60
2018-09-18T19:28:05.617Z,52.80
2018-09-18T19:30:33.935Z,53.10
2018-09-18T19:33:02.210Z,53.40
2018-09-18T19:35:30.478Z,54.30
2018-09-18T19:37:59.576Z,54.20
2018-09-18T19:40:28.627Z,54.60
2018-09-18T19:42:56.966Z,55.30
2018-09-18T19:45:25.337Z,55.20
2018-09-18T19:47:53.596Z,55.90
2018-09-18T19:50:22.024Z,58.10
2018-09-18T19:52:50.498Z,57.80
2018-09-18T19:55:18.835Z,58.00
2018-09-18T19:57:47.186Z,58.10
2018-09-18T20:00:15.447Z,59.10
2018-09-18T20:02:43.833Z,59.60
2018-09-18T20:05:12.717Z,58.90
2018-09-18T20:07:42.068Z,59.70
2018-09-18T20:10:10.480Z,59.90
2018-09-18T20:12:38.783Z,61.80
2018-09-18T20:15:07.110Z,61.70
2018-09-18T20:17:39.177Z,61.60
2018-09-18T20:20:07.625Z,62.40
2018-09-18T20:22:35.953Z,63.00
2018-09-18T20:25:06.273Z,63.80
2018-09-18T20:27:34.633Z,65.40
2018-09-18T20:30:04.975Z,65.70
2018-09-18T20:32:33.265Z,66.70
2018-09-18T20:35:02.769Z,67.60
2018-09-18T20:37:31.177Z,68.30
2018-09-18T20:39:59.453Z,68.00
2018-09-18T20:42:27.904Z,68.80
2018-09-18T20:44:56.354Z,70.80
2018-09-18T20:47:24.648Z,71.60
2018-09-18T20:49:53.142Z,72.00
2018-09-18T20:52:21.470Z,72.60
2018-09-18T20:54:51.907Z,74.30
2018-09-18T20:57:20.332Z,75.10
2018-09-18T20:59:48.733Z,75.50
2018-09-18T21:02:17.244Z,76.30
2018-09-18T21:04:45.485Z,77.50
2018-09-18T21:07:13.844Z,78.40
2018-09-18T21:09:42.171Z,79.80
2018-09-18T21:12:10.507Z,81.00
2018-09-18T21:14:44.284Z,81.10
2018-09-18T21:17:12.678Z,81.40
2018-09-18T21:19:41.973Z,82.10
2018-09-18T21:22:10.426Z,82.60
2018-09-18T21:24:38.679Z,83.60
2018-09-18T21:27:07.062Z,83.10
2018-09-18T21:29:36.424Z,83.30
2018-09-18T21:32:04.725Z,82.40
2018-09-18T21:34:33.015Z,84.90
2018-09-18T21:37:01.331Z,85.10
2018-09-18T21:39:29.597Z,86.10
2018-09-18T21:41:57.899Z,86.80
2018-09-18T21:44:26.159Z,86.90
2018-09-18T21:46:54.454Z,87.90
2018-09-18T21:49:22.766Z,88.00
2018-09-18T21:51:51.049Z,88.30
2018-09-18T21:54:19.326Z,88.50
2018-09-18T21:56:47.707Z,88.80
2018-09-18T21:59:16.117Z,88.70
2018-09-18T22:01:44.398Z,89.70
2018-09-18T22:04:12.676Z,90.00
2018-09-18T22:06:40.932Z,90.40
2018-09-18T22:09:09.280Z,90.10
2018-09-18T22:11:37.495Z,90.60
2018-09-18T22:14:05.788Z,90.80
2018-09-18T22:16:34.180Z,90.90
2018-09-18T22:19:02.494Z,91.40
2018-09-18T22:21:31.100Z,91.20
2018-09-18T22:23:59.422Z,91.60
2018-09-18T22:26:27.733Z,91.90
2018-09-18T22:28:55.988Z,91.90
2018-09-18T22:31:24.431Z,92.40
2018-09-18T22:33:52.703Z,91.80
2018-09-18T22:36:20.968Z,91.40
2018-09-18T22:38:49.250Z,92.00
2018-09-18T22:41:17.583Z,92.30
2018-09-18T22:43:45.840Z,92.10
2018-09-18T22:46:14.194Z,91.90
2018-09-18T22:48:42.590Z,91.90
2018-09-18T22:51:10.857Z,92.30
2018-09-18T22:53:39.343Z,92.70
2018-09-18T22:56:07.619Z,92.70
2018-09-18T22:58:35.894Z,93.00
2018-09-18T23:01:04.265Z,92.60
2018-09-18T23:03:32.555Z,93.30
2018-09-18T23:06:01.918Z,93.40
2018-09-18T23:08:30.150Z,93.10
2018-09-18T23:10:58.406Z,93.30
2018-09-18T23:13:26.708Z,93.10
2018-09-18T23:15:55.013Z,93.40
2018-09-18T23:18:23.288Z,93.90
2018-09-18T23:20:51.529Z,94.00
2018-09-18T23:23:19.841Z,94.00
2018-09-18T23:25:48.106Z,94.00
2018-09-18T23:28:16.328Z,94.40
2018-09-18T23:30:44.614Z,94.40
2018-09-18T23:33:12.861Z,94.80
2018-09-18T23:35:41.166Z,94.80
2018-09-18T23:38:09.687Z,94.80
2018-09-18T23:40:37.972Z,95.30
2018-09-18T23:43:06.285Z,95.10
2018-09-18T23:45:34.565Z,94.90
2018-09-18T23:48:02.841Z,94.80
2018-09-18T23:50:31.097Z,95.10
2018-09-18T23:52:59.423Z,95.10
2018-09-18T23:55:27.678Z,94.30
2018-09-18T23:57:55.969Z,94.60
